Time;durP1;ratioP1;P1;durP2;ratioP2;P2;SDS_P1;SDS_P2;PMS_P1;PMS_P2;Temp;Humidity;BMP_temperature;BMP_pressure;BME280_temperature;BME280_humidity;BME280_pressure;Samples;Min_cycle;Max_cycle;Signal;HPM_P1;HPM_P2
2023/08/28 00:05:00;;;;;;;3.85;2.75;;;18.90;93.20;;;;;;10359822;28;20451;-65
2023/08/28 00:10:01;;;;;;;4.70;2.90;;;18.80;93.20;;;;;;10362368;28;20400;-65
2023/08/28 00:15:02;;;;;;;3.60;2.90;;;18.80;93.20;;;;;;10346699;28;20421;-63
2023/08/28 00:20:07;;;;;;;3.40;2.83;;;18.80;93.20;;;;;;10364029;28;20396;-65
2023/08/28 00:25:08;;;;;;;3.15;2.85;;;18.80;93.20;;;;;;10361500;28;20459;-64
2023/08/28 00:30:09;;;;;;;3.70;3.13;;;18.80;93.20;;;;;;10362652;28;20819;-65
2023/08/28 00:35:10;;;;;;;3.40;3.10;;;18.80;93.20;;;;;;10344790;28;20929;-65
2023/08/28 00:40:13;;;;;;;3.80;3.40;;;18.70;93.10;;;;;;10347536;28;20406;-65
2023/08/28 00:45:14;;;;;;;3.65;3.33;;;19.30;93.30;;;;;;10357008;28;20404;-65
2023/08/28 00:50:15;;;;;;;3.60;3.30;;;18.70;93.10;;;;;;10364192;28;20528;-65
2023/08/28 00:55:16;;;;;;;4.40;3.33;;;18.70;93.10;;;;;;10361493;28;20405;-65
2023/08/28 01:00:16;;;;;;;4.75;3.42;;;18.70;93.10;;;;;;10360293;28;20396;-65
2023/08/28 01:05:20;;;;;;;3.85;3.42;;;18.70;93.00;;;;;;10357453;28;20735;-65
2023/08/28 01:10:44;;;;;;;4.35;3.33;;;18.70;93.00;;;;;;10359485;28;20843;-65
2023/08/28 01:15:45;;;;;;;4.10;3.20;;;18.60;93.00;;;;;;10330673;28;20824;-66
2023/08/28 01:20:49;;;;;;;5.60;3.65;;;18.60;93.00;;;;;;10359179;28;20401;-64
2023/08/28 01:25:51;;;;;;;4.03;3.63;;;18.60;93.00;;;;;;10354185;28;20828;-65
2023/08/28 01:30:53;;;;;;;4.43;3.70;;;18.60;92.90;;;;;;10359673;28;20396;-65
2023/08/28 01:36:13;;;;;;;4.37;3.67;;;18.60;92.90;;;;;;10355001;28;20411;-65
2023/08/28 01:41:18;;;;;;;5.28;3.50;;;18.60;92.90;;;;;;10359826;28;20486;-65
2023/08/28 01:46:19;;;;;;;4.68;3.88;;;18.50;92.90;;;;;;10355982;28;20412;-64
2023/08/28 01:51:20;;;;;;;4.07;3.67;;;18.50;92.90;;;;;;10358144;28;20416;-64
2023/08/28 01:56:25;;;;;;;4.07;3.67;;;18.50;92.80;;;;;;10357089;28;20420;-65
2023/08/28 02:01:26;;;;;;;4.65;3.78;;;18.50;92.90;;;;;;10357593;28;20396;-64
2023/08/28 02:06:27;;;;;;;4.33;3.93;;;18.50;92.90;;;;;;10357037;28;20900;-64
2023/08/28 02:11:27;;;;;;;4.38;3.97;;;18.50;92.90;;;;;;10355709;28;20408;-65
2023/08/28 02:16:28;;;;;;;4.75;4.00;;;18.40;92.80;;;;;;10355153;28;20428;-63
2023/08/28 02:21:29;;;;;;;5.10;3.67;;;18.40;92.80;;;;;;10357860;28;20768;-65
2023/08/28 02:26:29;;;;;;;5.13;3.90;;;18.40;92.90;;;;;;10355133;28;20412;-64
2023/08/28 02:31:30;;;;;;;4.30;3.90;;;18.40;92.90;;;;;;10365049;28;20468;-65
2023/08/28 02:36:30;;;;;;;4.90;4.00;;;18.40;92.80;;;;;;10361215;28;20420;-63
2023/08/28 02:41:31;;;;;;;4.47;4.07;;;18.40;92.90;;;;;;10363204;28;20427;-64
2023/08/28 02:46:32;;;;;;;4.23;3.83;;;18.40;92.80;;;;;;10353034;28;20499;-65
2023/08/28 02:51:33;;;;;;;4.68;4.03;;;18.40;92.90;;;;;;10360135;28;20423;-64
2023/08/28 02:56:40;;;;;;;4.97;4.20;;;18.40;92.90;;;;;;10346601;28;20780;-63
2023/08/28 03:01:41;;;;;;;4.70;4.10;;;18.40;92.90;;;;;;10362221;28;20397;-65
2023/08/28 03:06:41;;;;;;;4.33;3.80;;;18.30;92.90;;;;;;10343747;28;20413;-64
2023/08/28 03:11:42;;;;;;;5.10;4.00;;;18.30;92.90;;;;;;10363316;28;20893;-65
2023/08/28 03:16:43;;;;;;;4.83;4.27;;;18.30;93.00;;;;;;10361600;28;20871;-65
2023/08/28 03:21:43;;;;;;;4.87;3.90;;;18.30;93.00;;;;;;10362512;28;21016;-65
2023/08/28 03:26:44;;;;;;;4.78;3.90;;;18.30;93.00;;;;;;10357895;28;20412;-65
2023/08/28 03:31:44;;;;;;;5.57;3.88;;;18.30;93.00;;;;;;10360031;28;20897;-64
2023/08/28 03:36:46;;;;;;;5.57;3.80;;;18.30;93.00;;;;;;10361185;28;20463;-64
2023/08/28 03:41:46;;;;;;;4.10;3.70;;;18.30;93.00;;;;;;10358842;28;20404;-65
2023/08/28 03:46:47;;;;;;;3.95;3.47;;;18.30;93.00;;;;;;10361317;28;20419;-65
2023/08/28 03:51:47;;;;;;;4.82;3.83;;;18.30;93.00;;;;;;10361473;28;20417;-64
2023/08/28 03:56:50;;;;;;;3.90;3.50;;;18.30;93.00;;;;;;10360982;28;20417;-64
2023/08/28 04:01:51;;;;;;;4.10;3.70;;;18.20;93.00;;;;;;10360595;28;20405;-65
2023/08/28 04:06:51;;;;;;;4.57;3.40;;;18.20;93.00;;;;;;10356938;28;20776;-63
2023/08/28 04:11:52;;;;;;;4.33;3.80;;;18.20;93.00;;;;;;10357035;28;20413;-64
2023/08/28 04:16:53;;;;;;;4.07;3.67;;;18.20;93.00;;;;;;10357637;28;20471;-64
2023/08/28 04:21:54;;;;;;;3.90;3.50;;;18.20;93.30;;;;;;10358889;28;20412;-64
2023/08/28 04:26:54;;;;;;;3.90;3.50;;;18.20;93.00;;;;;;10355497;28;20769;-64
2023/08/28 04:31:55;;;;;;;4.43;3.60;;;18.20;93.00;;;;;;10356260;28;21224;-63
2023/08/28 04:36:55;;;;;;;3.57;3.27;;;18.20;93.00;;;;;;10358440;28;20816;-64
2023/08/28 04:41:56;;;;;;;3.80;3.50;;;18.20;93.00;;;;;;10346515;28;20396;-65
2023/08/28 04:46:59;;;;;;;4.20;3.40;;;18.10;93.00;;;;;;10358108;28;20409;-64
2023/08/28 04:51:59;;;;;;;4.33;3.47;;;18.10;93.00;;;;;;10358845;28;20420;-65
2023/08/28 04:57:00;;;;;;;4.88;3.42;;;18.10;93.00;;;;;;10353852;28;20418;-65
2023/08/28 05:02:01;;;;;;;5.43;3.95;;;18.10;93.00;;;;;;10355476;28;20452;-63
2023/08/28 05:07:03;;;;;;;4.10;3.63;;;18.10;93.00;;;;;;10358777;28;20408;-65
2023/08/28 05:12:03;;;;;;;4.73;3.33;;;18.10;93.00;;;;;;10356300;28;20396;-64
2023/08/28 05:17:06;;;;;;;4.40;3.42;;;18.10;92.90;;;;;;10342090;28;20412;-65
2023/08/28 05:22:06;;;;;;;3.93;3.50;;;18.10;92.90;;;;;;10361784;28;20444;-64
2023/08/28 05:27:08;;;;;;;4.43;3.70;;;18.10;92.90;;;;;;10344669;28;20419;-64
2023/08/28 05:32:08;;;;;;;4.43;3.40;;;18.10;92.90;;;;;;10343237;28;20431;-64
2023/08/28 05:37:09;;;;;;;3.88;3.30;;;18.10;92.90;;;;;;10354152;28;20400;-64
2023/08/28 05:42:10;;;;;;;4.28;3.67;;;18.10;92.90;;;;;;10358294;28;20912;-65
2023/08/28 05:47:11;;;;;;;4.40;3.57;;;18.10;92.90;;;;;;10358754;28;20442;-64
2023/08/28 05:52:12;;;;;;;4.20;3.80;;;18.10;92.90;;;;;;10356862;28;20784;-65
2023/08/28 05:57:12;;;;;;;6.32;4.10;;;18.10;93.30;;;;;;10358088;28;20423;-62
2023/08/28 06:02:13;;;;;;;4.23;3.73;;;18.00;93.40;;;;;;10345264;28;20414;-65
2023/08/28 06:07:14;;;;;;;4.20;3.80;;;18.00;93.40;;;;;;10362330;28;20407;-64
2023/08/28 06:12:14;;;;;;;4.97;3.70;;;18.00;93.40;;;;;;10372961;28;20431;-65
2023/08/28 06:17:15;;;;;;;4.15;3.45;;;18.00;93.30;;;;;;10372830;28;20416;-62
2023/08/28 06:22:16;;;;;;;5.20;3.50;;;18.10;93.20;;;;;;10371410;28;20396;-64
2023/08/28 06:27:17;;;;;;;4.10;3.30;;;18.10;93.20;;;;;;10372788;28;20498;-64
2023/08/28 06:32:17;;;;;;;4.77;3.40;;;18.10;93.20;;;;;;10372279;28;20400;-64
2023/08/28 06:37:18;;;;;;;3.93;3.23;;;18.10;93.20;;;;;;10369794;28;20415;-64
2023/08/28 06:42:19;;;;;;;4.22;3.20;;;18.10;93.10;;;;;;10371549;28;20401;-64
2023/08/28 06:47:19;;;;;;;4.20;3.23;;;18.10;93.10;;;;;;10371474;28;20910;-64
2023/08/28 06:52:20;;;;;;;5.13;3.50;;;18.10;93.40;;;;;;10371547;28;20424;-62
2023/08/28 06:57:21;;;;;;;4.90;3.15;;;18.10;93.30;;;;;;10369337;28;20419;-64
2023/08/28 07:02:22;;;;;;;3.83;3.30;;;18.10;93.20;;;;;;10355518;28;20430;-64
2023/08/28 07:07:23;;;;;;;4.43;3.40;;;18.20;93.20;;;;;;10355179;28;20518;-64
2023/08/28 07:12:23;;;;;;;5.25;3.70;;;18.20;93.30;;;;;;10366338;28;20519;-64
2023/08/28 07:17:24;;;;;;;7.20;4.00;;;18.20;94.00;;;;;;10363293;28;20423;-63
2023/08/28 07:22:25;;;;;;;5.20;3.90;;;18.40;94.60;;;;;;10362219;28;20440;-64
2023/08/28 07:27:25;;;;;;;7.50;3.90;;;18.40;94.30;;;;;;10360657;28;20413;-63
2023/08/28 07:32:26;;;;;;;6.47;3.70;;;18.50;94.20;;;;;;10361215;28;20823;-64
2023/08/28 07:37:30;;;;;;;5.20;3.73;;;18.50;94.20;;;;;;10361872;28;20443;-65
2023/08/28 07:42:31;;;;;;;9.70;3.80;;;18.50;94.30;;;;;;10362689;28;20491;-64
2023/08/28 07:47:31;;;;;;;5.03;3.33;;;18.50;94.30;;;;;;10349439;28;20409;-62
2023/08/28 07:52:32;;;;;;;6.43;3.33;;;18.50;94.30;;;;;;10370225;28;20904;-63
2023/08/28 07:57:34;;;;;;;5.43;3.47;;;18.60;94.30;;;;;;10361560;28;20449;-63
2023/08/28 08:02:35;;;;;;;4.60;3.20;;;18.60;94.20;;;;;;10366983;28;20406;-64
2023/08/28 08:07:36;;;;;;;5.23;3.17;;;18.60;94.10;;;;;;10362907;28;20400;-63
2023/08/28 08:12:38;;;;;;;5.73;3.33;;;18.60;94.00;;;;;;10356459;28;20419;-64
2023/08/28 08:17:39;;;;;;;4.18;2.90;;;18.60;94.00;;;;;;10350469;28;20412;-64
2023/08/28 08:22:42;;;;;;;3.37;2.93;;;18.70;94.20;;;;;;10360508;28;20889;-64
2023/08/28 08:27:44;;;;;;;4.07;3.20;;;18.70;94.10;;;;;;10368496;28;20415;-63
2023/08/28 08:32:46;;;;;;;4.13;3.13;;;18.80;94.10;;;;;;10361565;28;20780;-65
2023/08/28 08:37:47;;;;;;;4.80;3.05;;;18.80;94.00;;;;;;10364868;28;20500;-64
2023/08/28 08:42:48;;;;;;;5.22;2.97;;;18.80;94.00;;;;;;10362557;28;20439;-63
2023/08/28 08:47:53;;;;;;;3.93;2.00;;;18.90;94.00;;;;;;10350301;28;20525;-65
2023/08/28 08:52:58;;;;;;;4.80;1.65;;;18.90;95.00;;;;;;10364414;28;20440;-64
2023/08/28 08:58:04;;;;;;;2.87;1.30;;;18.80;96.70;;;;;;10348708;28;20448;-64
2023/08/28 09:03:08;;;;;;;4.57;1.23;;;18.80;96.40;;;;;;10365251;28;20413;-65
2023/08/28 09:08:10;;;;;;;3.60;1.20;;;18.90;96.60;;;;;;10364641;28;20414;-66
2023/08/28 09:13:11;;;;;;;3.33;1.13;;;18.90;96.70;;;;;;10362881;28;20397;-64
2023/08/28 09:18:11;;;;;;;2.20;1.10;;;18.90;96.50;;;;;;10367586;28;20427;-66
2023/08/28 09:23:12;;;;;;;1.77;1.02;;;18.90;96.90;;;;;;10362113;28;20404;-63
2023/08/28 09:28:12;;;;;;;1.90;1.00;;;18.90;96.80;;;;;;10360958;28;20404;-65
2023/08/28 09:33:13;;;;;;;2.67;0.90;;;18.90;96.70;;;;;;10363091;28;20825;-65
2023/08/28 09:38:14;;;;;;;1.90;0.90;;;19.00;96.70;;;;;;10358794;28;20418;-65
2023/08/28 09:43:16;;;;;;;2.20;0.90;;;19.00;96.50;;;;;;10366058;28;20899;-65
2023/08/28 09:48:17;;;;;;;3.10;1.00;;;19.20;96.60;;;;;;10359306;28;20896;-65
2023/08/28 09:53:18;;;;;;;1.58;0.90;;;19.40;96.40;;;;;;10363768;28;20547;-65
2023/08/28 09:58:26;;;;;;;2.08;0.70;;;19.40;96.20;;;;;;10343419;28;20466;-65
2023/08/28 10:03:28;;;;;;;3.80;0.77;;;19.30;94.50;;;;;;10360352;28;20404;-65
2023/08/28 10:08:31;;;;;;;2.17;0.73;;;19.20;93.90;;;;;;10362486;28;20780;-64
2023/08/28 10:13:33;;;;;;;2.65;0.73;;;19.10;94.00;;;;;;10356408;28;20781;-65
2023/08/28 10:18:46;;;;;;;3.08;0.80;;;19.30;94.70;;;;;;10359392;28;20416;-63
2023/08/28 10:23:48;;;;;;;1.67;0.77;;;19.40;94.60;;;;;;10360061;28;20400;-65
2023/08/28 10:28:51;;;;;;;1.60;1.13;;;19.40;94.50;;;;;;10357545;28;20756;-64
2023/08/28 10:33:53;;;;;;;3.10;0.90;;;19.40;94.80;;;;;;10346247;28;20412;-65
2023/08/28 10:38:55;;;;;;;2.65;0.93;;;19.50;95.50;;;;;;10361340;28;20805;-65
2023/08/28 10:44:00;;;;;;;2.65;0.80;;;19.70;94.90;;;;;;10355127;28;20491;-65
2023/08/28 10:49:04;;;;;;;2.08;0.93;;;19.70;94.90;;;;;;10361417;28;20470;-66
2023/08/28 10:54:07;;;;;;;5.47;1.00;;;19.70;94.50;;;;;;10365803;28;20504;-64
2023/08/28 10:59:22;;;;;;;2.00;0.80;;;19.80;94.40;;;;;;10349668;28;20401;-66
2023/08/28 11:04:24;;;;;;;2.00;0.60;;;19.80;93.90;;;;;;10364117;28;20471;-66
2023/08/28 11:09:28;;;;;;;1.35;0.82;;;19.80;93.70;;;;;;10361234;28;20946;-66
2023/08/28 11:14:38;;;;;;;1.50;0.57;;;19.90;93.30;;;;;;10364270;28;20417;-66
2023/08/28 11:20:00;;;;;;;1.23;0.70;;;20.00;93.30;;;;;;10366617;28;20409;-65
2023/08/28 11:25:07;;;;;;;1.85;0.77;;;20.10;92.60;;;;;;10359385;28;20923;-65
2023/08/28 11:30:09;;;;;;;1.38;0.70;;;20.10;92.10;;;;;;10360777;28;20445;-63
2023/08/28 11:35:14;;;;;;;2.25;0.80;;;20.20;92.60;;;;;;10363770;28;20431;-63
2023/08/28 11:40:23;;;;;;;1.70;0.80;;;20.10;93.00;;;;;;10362959;28;20432;-66
2023/08/28 11:45:24;;;;;;;1.67;0.80;;;20.10;93.20;;;;;;10358363;28;20998;-65
2023/08/28 11:50:26;;;;;;;1.60;0.60;;;20.10;93.40;;;;;;10361939;28;20424;-66
2023/08/28 11:55:33;;;;;;;1.48;0.70;;;20.00;93.10;;;;;;10360607;28;20912;-66
2023/08/28 12:00:34;;;;;;;2.30;0.67;;;20.00;93.00;;;;;;10349307;28;20404;-67
2023/08/28 12:05:35;;;;;;;3.07;0.90;;;20.00;92.30;;;;;;10345319;28;20408;-64
2023/08/28 12:10:36;;;;;;;1.10;0.60;;;19.90;92.80;;;;;;10361189;28;20908;-65
2023/08/28 12:15:37;;;;;;;1.17;0.80;;;20.00;92.70;;;;;;10368009;28;20479;-66
2023/08/28 12:20:38;;;;;;;1.20;0.60;;;20.10;92.70;;;;;;10367602;28;20426;-68
2023/08/28 12:25:41;;;;;;;1.55;0.60;;;20.20;92.00;;;;;;10376341;28;20413;-67
2023/08/28 12:30:42;;;;;;;1.88;0.60;;;20.30;91.40;;;;;;10366512;28;20843;-67
2023/08/28 12:35:43;;;;;;;1.57;0.70;;;20.30;91.70;;;;;;10368102;28;20452;-66
2023/08/28 12:40:44;;;;;;;1.30;0.70;;;20.50;92.10;;;;;;10367166;28;20423;-67
2023/08/28 12:45:44;;;;;;;1.35;0.70;;;20.50;91.80;;;;;;10362848;28;20412;-67
2023/08/28 12:50:45;;;;;;;1.95;0.70;;;20.80;91.80;;;;;;10367182;28;20424;-66
2023/08/28 12:55:46;;;;;;;1.85;0.70;;;20.90;91.00;;;;;;10366298;28;20408;-65
2023/08/28 13:00:46;;;;;;;1.10;0.70;;;20.90;91.10;;;;;;10372027;28;20408;-67
2023/08/28 13:05:48;;;;;;;1.25;0.73;;;21.00;91.40;;;;;;10370217;28;20404;-67
2023/08/28 13:10:49;;;;;;;1.60;0.80;;;21.10;91.60;;;;;;10351984;28;20427;-66
2023/08/28 13:15:51;;;;;;;3.10;0.70;;;21.10;88.90;;;;;;10365799;28;20429;-66
2023/08/28 13:20:51;;;;;;;1.37;0.60;;;21.30;89.40;;;;;;10367969;28;20986;-66
2023/08/28 13:25:52;;;;;;;1.97;0.70;;;21.50;90.40;;;;;;10365414;28;20400;-66
2023/08/28 13:30:53;;;;;;;0.93;0.70;;;21.70;89.40;;;;;;10351834;28;20397;-66
2023/08/28 13:35:53;;;;;;;1.90;0.60;;;22.00;89.40;;;;;;10361076;28;20448;-66
2023/08/28 13:40:54;;;;;;;2.30;0.70;;;21.90;89.20;;;;;;10364261;28;20388;-65
2023/08/28 13:45:56;;;;;;;1.60;0.60;;;21.40;87.80;;;;;;10364055;28;20439;-66
2023/08/28 13:50:56;;;;;;;1.60;0.70;;;21.30;90.20;;;;;;10364316;28;20412;-66
2023/08/28 13:55:57;;;;;;;1.77;0.80;;;21.10;90.00;;;;;;10366207;28;20409;-67
2023/08/28 14:00:59;;;;;;;1.60;0.75;;;21.10;90.30;;;;;;10362685;28;20407;-66
2023/08/28 14:06:01;;;;;;;1.98;0.70;;;21.00;90.30;;;;;;10349650;28;20496;-66
2023/08/28 14:11:10;;;;;;;2.33;0.70;;;20.90;90.70;;;;;;10361781;28;20493;-64
2023/08/28 14:16:10;;;;;;;2.20;0.70;;;21.00;90.90;;;;;;10360132;28;20920;-66
2023/08/28 14:21:11;;;;;;;2.47;0.90;;;20.90;90.80;;;;;;10362560;28;20401;-67
2023/08/28 14:26:12;;;;;;;2.20;0.70;;;20.80;90.90;;;;;;10366375;28;20931;-66
2023/08/28 14:31:12;;;;;;;2.10;0.80;;;20.70;90.90;;;;;;10368264;28;20435;-64
2023/08/28 14:36:13;;;;;;;2.13;0.70;;;20.80;91.40;;;;;;10371212;28;20788;-67
2023/08/28 14:41:14;;;;;;;2.40;1.17;;;20.70;91.30;;;;;;10349558;28;20388;-67
2023/08/28 14:46:14;;;;;;;4.85;1.00;;;20.70;91.70;;;;;;10367810;28;20408;-66
2023/08/28 14:51:16;;;;;;;2.85;0.80;;;20.70;92.30;;;;;;10365939;28;20424;-66
2023/08/28 14:56:16;;;;;;;2.78;0.80;;;20.70;92.70;;;;;;10363974;28;20417;-69
2023/08/28 15:01:17;;;;;;;1.73;0.77;;;20.80;92.70;;;;;;10355912;28;20397;-67
2023/08/28 15:06:23;;;;;;;2.13;0.80;;;20.80;92.60;;;;;;10362908;28;21472;-67
2023/08/28 15:11:23;;;;;;;2.83;0.90;;;20.90;92.70;;;;;;10367819;28;20401;-68
2023/08/28 15:16:24;;;;;;;2.50;0.80;;;20.90;92.70;;;;;;10367565;28;20900;-66
2023/08/28 15:21:25;;;;;;;2.38;0.90;;;20.90;92.80;;;;;;10350171;28;20397;-66
2023/08/28 15:26:25;;;;;;;1.55;0.80;;;20.90;92.80;;;;;;10365864;28;20446;-67
2023/08/28 15:31:26;;;;;;;1.67;0.80;;;20.90;92.80;;;;;;10366607;28;20399;-66
2023/08/28 15:36:26;;;;;;;1.55;0.90;;;21.00;92.80;;;;;;10364364;28;20904;-68
2023/08/28 15:41:33;;;;;;;0.88;0.73;;;21.10;92.90;;;;;;10365404;28;20947;-66
2023/08/28 15:46:34;;;;;;;1.25;1.00;;;21.00;92.90;;;;;;10365171;28;20873;-67
2023/08/28 15:51:35;;;;;;;1.80;0.90;;;21.00;93.00;;;;;;10364340;28;20497;-67
2023/08/28 15:56:35;;;;;;;2.70;0.90;;;21.00;93.00;;;;;;10362603;28;20412;-65
2023/08/28 16:01:37;;;;;;;2.70;0.77;;;20.20;92.90;;;;;;10361343;28;20396;-66
2023/08/28 16:06:38;;;;;;;1.77;0.98;;;21.00;93.00;;;;;;10362379;28;20470;-66
2023/08/28 16:11:48;;;;;;;2.40;0.95;;;21.00;93.10;;;;;;10363346;28;20401;-66
2023/08/28 16:16:48;;;;;;;1.63;0.90;;;20.90;93.40;;;;;;10362263;28;20419;-65
2023/08/28 16:21:50;;;;;;;1.83;0.80;;;21.00;93.30;;;;;;10361714;28;20772;-66
2023/08/28 16:26:50;;;;;;;3.63;1.10;;;20.90;93.20;;;;;;10362215;28;20883;-66
2023/08/28 16:31:51;;;;;;;4.03;1.03;;;21.00;93.30;;;;;;10362348;28;20427;-67
2023/08/28 16:36:51;;;;;;;2.83;0.80;;;20.90;93.10;;;;;;10361405;28;20431;-66
2023/08/28 16:41:52;;;;;;;1.97;0.73;;;20.90;93.40;;;;;;10361361;28;20487;-65
2023/08/28 16:46:53;;;;;;;2.03;0.80;;;20.90;93.00;;;;;;10360284;28;20408;-66
2023/08/28 16:51:53;;;;;;;2.60;1.20;;;20.80;93.10;;;;;;10358850;28;20475;-66
2023/08/28 16:56:54;;;;;;;2.07;1.10;;;20.60;91.90;;;;;;10357358;28;20417;-67
2023/08/28 17:01:55;;;;;;;2.58;0.93;;;20.30;92.40;;;;;;10355732;28;20915;-66
2023/08/28 17:06:55;;;;;;;1.90;0.97;;;20.20;92.60;;;;;;10359787;28;20877;-65
2023/08/28 17:11:56;;;;;;;1.90;1.10;;;20.20;93.10;;;;;;10356256;28;20404;-68
2023/08/28 17:17:00;;;;;;;2.80;1.20;;;20.30;93.10;;;;;;10361020;28;20436;-66
2023/08/28 17:22:02;;;;;;;3.03;1.40;;;20.40;93.20;;;;;;10352870;28;20908;-67
2023/08/28 17:27:03;;;;;;;2.67;1.20;;;20.50;93.10;;;;;;10354850;28;20440;-65
2023/08/28 17:32:04;;;;;;;1.38;1.00;;;20.60;93.10;;;;;;10357472;28;20416;-64
2023/08/28 17:37:05;;;;;;;2.43;1.23;;;20.60;93.10;;;;;;10354005;28;20483;-65
2023/08/28 17:42:06;;;;;;;1.77;1.50;;;20.60;93.10;;;;;;10356421;28;20616;-66
2023/08/28 17:47:09;;;;;;;2.33;1.30;;;20.60;93.10;;;;;;10346809;28;20815;-66
2023/08/28 17:52:10;;;;;;;2.33;1.20;;;20.70;93.10;;;;;;10352257;28;20477;-66
2023/08/28 17:57:11;;;;;;;1.60;1.10;;;20.70;93.10;;;;;;10355163;28;20416;-65
2023/08/28 18:02:11;;;;;;;2.17;1.40;;;20.70;93.10;;;;;;10353015;28;20407;-66
2023/08/28 18:07:12;;;;;;;2.33;1.30;;;20.70;93.10;;;;;;10352805;28;20424;-66
2023/08/28 18:12:13;;;;;;;3.37;1.40;;;20.70;93.10;;;;;;10343776;28;20697;-65
2023/08/28 18:17:16;;;;;;;2.23;1.20;;;20.70;93.10;;;;;;10351003;28;20419;-65
2023/08/28 18:22:17;;;;;;;2.03;1.20;;;20.70;93.10;;;;;;10356528;28;20400;-65
2023/08/28 18:27:18;;;;;;;1.38;1.13;;;20.60;93.20;;;;;;10355404;28;20931;-66
2023/08/28 18:32:18;;;;;;;2.13;1.30;;;20.60;93.20;;;;;;10356368;28;20405;-64
2023/08/28 18:37:19;;;;;;;1.70;1.20;;;20.60;93.20;;;;;;10353593;28;20479;-66
2023/08/28 18:42:19;;;;;;;1.90;1.20;;;20.60;93.20;;;;;;10358373;28;20415;-66
2023/08/28 18:47:20;;;;;;;2.28;1.40;;;20.60;93.30;;;;;;10338067;28;20407;-65
2023/08/28 18:52:21;;;;;;;2.20;1.20;;;20.60;93.30;;;;;;10348445;28;20408;-66
2023/08/28 18:57:21;;;;;;;1.60;1.20;;;20.60;93.30;;;;;;10357464;28;20459;-66
2023/08/28 19:02:22;;;;;;;1.90;1.30;;;20.60;93.30;;;;;;10352189;28;20901;-64
2023/08/28 19:07:24;;;;;;;2.47;1.30;;;20.50;93.30;;;;;;10336709;28;20408;-64
2023/08/28 19:12:25;;;;;;;2.00;1.50;;;20.50;93.40;;;;;;10357411;28;20408;-65
2023/08/28 19:17:25;;;;;;;2.37;1.30;;;20.50;93.40;;;;;;10357132;28;20448;-64
2023/08/28 19:22:26;;;;;;;2.00;1.30;;;20.40;93.40;;;;;;10355323;28;20397;-66
2023/08/28 19:27:27;;;;;;;2.07;1.00;;;20.40;93.40;;;;;;10340701;28;20636;-66
2023/08/28 19:32:42;;;;;;;1.95;1.17;;;20.40;93.40;;;;;;10360026;28;20545;-65
2023/08/28 19:37:46;;;;;;;2.22;1.23;;;20.40;93.50;;;;;;10359805;28;20519;-66
2023/08/28 19:42:46;;;;;;;2.03;1.38;;;20.40;93.50;;;;;;10359266;28;20919;-65
2023/08/28 19:47:47;;;;;;;1.93;1.40;;;20.30;93.60;;;;;;10361192;28;20401;-66
2023/08/28 19:52:48;;;;;;;1.63;1.20;;;20.30;93.60;;;;;;10359286;28;20994;-65
2023/08/28 19:57:50;;;;;;;1.83;1.50;;;20.30;93.60;;;;;;10359726;28;20404;-65
2023/08/28 20:02:51;;;;;;;2.50;1.35;;;20.30;93.60;;;;;;10356900;28;20400;-65
2023/08/28 20:07:52;;;;;;;2.38;1.50;;;20.30;93.60;;;;;;10359782;28;20455;-65
2023/08/28 20:12:52;;;;;;;2.40;1.35;;;20.20;93.60;;;;;;10356515;28;20420;-64
2023/08/28 20:17:53;;;;;;;2.17;1.40;;;20.20;93.60;;;;;;10357080;28;20417;-65
2023/08/28 20:22:53;;;;;;;2.20;1.50;;;20.20;93.60;;;;;;10360417;28;20936;-65
2023/08/28 20:27:54;;;;;;;2.10;1.47;;;20.20;93.50;;;;;;10342945;28;20420;-65
2023/08/28 20:32:55;;;;;;;2.33;1.60;;;20.10;93.50;;;;;;10353845;28;20938;-66
2023/08/28 20:37:56;;;;;;;2.27;1.50;;;20.10;93.50;;;;;;10355059;28;20417;-65
2023/08/28 20:42:57;;;;;;;1.80;1.40;;;20.10;93.50;;;;;;10347630;28;20412;-64
2023/08/28 20:47:58;;;;;;;2.35;1.50;;;20.10;93.50;;;;;;10355266;28;20985;-65
2023/08/28 20:52:58;;;;;;;2.70;1.60;;;20.00;93.50;;;;;;10341399;28;20443;-66
2023/08/28 20:57:59;;;;;;;2.53;1.70;;;20.00;93.50;;;;;;10354776;28;20684;-64
2023/08/28 21:03:00;;;;;;;2.80;1.58;;;20.00;93.50;;;;;;10337386;28;20400;-65
2023/08/28 21:08:00;;;;;;;2.10;1.40;;;20.00;93.40;;;;;;10355570;28;20491;-66
2023/08/28 21:13:01;;;;;;;2.67;1.60;;;20.00;93.40;;;;;;10356102;28;20412;-65
2023/08/28 21:18:02;;;;;;;1.90;1.30;;;20.00;93.40;;;;;;10356873;28;20820;-65
2023/08/28 21:23:03;;;;;;;2.30;1.60;;;19.90;93.40;;;;;;10357873;28;20988;-64
2023/08/28 21:28:04;;;;;;;2.35;1.50;;;19.90;93.40;;;;;;10356129;28;20504;-64
2023/08/28 21:33:04;;;;;;;2.97;1.50;;;19.90;93.30;;;;;;10355182;28;20408;-65
2023/08/28 21:38:05;;;;;;;2.80;1.70;;;19.80;93.30;;;;;;10356231;28;20413;-65
2023/08/28 21:43:06;;;;;;;2.67;1.60;;;19.80;93.30;;;;;;10338298;28;20403;-64
2023/08/28 21:48:06;;;;;;;2.43;1.50;;;19.80;93.30;;;;;;10356772;28;20413;-66
2023/08/28 21:53:10;;;;;;;3.17;1.88;;;19.80;93.20;;;;;;10354190;28;20707;-66
2023/08/28 21:58:12;;;;;;;3.08;1.58;;;19.80;93.20;;;;;;10351221;28;20999;-65
2023/08/28 22:03:14;;;;;;;2.97;1.60;;;19.70;93.20;;;;;;10352332;28;20472;-64
2023/08/28 22:08:17;;;;;;;2.28;1.70;;;19.70;93.10;;;;;;10351610;28;20420;-64
2023/08/28 22:13:20;;;;;;;2.60;1.65;;;19.70;93.10;;;;;;10358996;28;20404;-65
2023/08/28 22:18:21;;;;;;;2.13;1.50;;;19.70;93.10;;;;;;10356841;28;20419;-65
2023/08/28 22:23:22;;;;;;;2.17;1.70;;;19.60;93.10;;;;;;10365759;28;20487;-65
2023/08/28 22:28:22;;;;;;;2.80;1.50;;;19.60;93.10;;;;;;10341422;28;20412;-64
2023/08/28 22:33:23;;;;;;;1.80;1.60;;;19.60;93.10;;;;;;10339099;28;20487;-65
2023/08/28 22:38:24;;;;;;;1.77;1.58;;;19.60;93.10;;;;;;10358325;28;20788;-64
2023/08/28 22:43:25;;;;;;;2.53;1.60;;;19.50;93.10;;;;;;10351735;28;20436;-64
2023/08/28 22:48:25;;;;;;;2.40;1.63;;;19.50;93.00;;;;;;10370547;28;20964;-64
2023/08/28 22:53:26;;;;;;;1.90;1.50;;;19.50;93.00;;;;;;10367921;28;20417;-64
2023/08/28 22:58:26;;;;;;;2.40;1.80;;;19.60;93.00;;;;;;10368321;28;20506;-66
2023/08/28 23:03:28;;;;;;;2.07;1.77;;;19.40;93.00;;;;;;10367428;28;20411;-64
2023/08/28 23:08:28;;;;;;;3.22;1.70;;;19.40;93.00;;;;;;10365782;28;20507;-63
2023/08/28 23:13:29;;;;;;;2.20;1.73;;;19.40;93.00;;;;;;10365449;28;20661;-64
2023/08/28 23:18:30;;;;;;;2.87;1.80;;;19.40;93.00;;;;;;10370170;28;20422;-63
2023/08/28 23:23:30;;;;;;;2.30;1.70;;;19.40;93.00;;;;;;10365075;28;20384;-65
2023/08/28 23:28:31;;;;;;;4.60;2.00;;;19.30;93.00;;;;;;10367097;28;20471;-65
2023/08/28 23:33:32;;;;;;;1.73;1.53;;;19.30;93.00;;;;;;10363967;28;20498;-64
2023/08/28 23:38:34;;;;;;;1.90;1.63;;;19.30;93.00;;;;;;10360386;28;20921;-65
2023/08/28 23:43:34;;;;;;;2.17;1.90;;;19.30;93.00;;;;;;10368272;28;20756;-64
2023/08/28 23:48:35;;;;;;;2.60;1.80;;;19.30;93.00;;;;;;10366744;28;20403;-65
2023/08/28 23:53:36;;;;;;;2.30;1.90;;;19.20;92.90;;;;;;10368663;28;20840;-65
2023/08/28 23:58:37;;;;;;;2.70;1.83;;;19.30;93.00;;;;;;10360842;28;20474;-64
